createdAt,value
2024-02-24T00:00:54.397Z,99.90
2024-02-24T00:03:22.960Z,99.90
2024-02-24T00:05:50.207Z,99.90
2024-02-24T00:08:17.226Z,99.90
2024-02-24T00:10:44.201Z,99.90
2024-02-24T00:13:11.337Z,99.90
2024-02-24T00:15:38.142Z,99.90
2024-02-24T00:18:05.904Z,99.90
2024-02-24T00:20:34.078Z,99.90
2024-02-24T00:23:00.897Z,99.90
2024-02-24T00:25:27.866Z,99.90
2024-02-24T00:27:56.319Z,99.90
2024-02-24T00:30:23.181Z,99.90
2024-02-24T00:32:50.139Z,99.90
2024-02-24T00:35:17.146Z,99.90
2024-02-24T00:37:44.144Z,99.90
2024-02-24T00:40:11.567Z,99.90
2024-02-24T00:42:38.391Z,99.90
2024-02-24T00:45:05.763Z,99.90
2024-02-24T00:47:32.852Z,99.90
2024-02-24T00:49:59.954Z,99.90
2024-02-24T00:52:27.256Z,99.90
2024-02-24T00:54:54.163Z,99.90
2024-02-24T00:57:20.969Z,99.90
2024-02-24T00:59:47.894Z,99.90
2024-02-24T01:02:14.856Z,99.90
2024-02-24T01:04:41.720Z,99.90
2024-02-24T01:07:09.115Z,99.90
2024-02-24T01:09:35.970Z,99.90
2024-02-24T01:12:03.824Z,99.90
2024-02-24T01:14:32.584Z,99.90
2024-02-24T01:16:59.460Z,99.90
2024-02-24T01:19:26.369Z,99.90
2024-02-24T01:21:55.200Z,99.90
2024-02-24T01:24:22.800Z,99.90
2024-02-24T01:26:49.665Z,99.90
2024-02-24T01:29:16.525Z,99.90
2024-02-24T01:31:43.360Z,99.90
2024-02-24T01:34:10.297Z,99.90
2024-02-24T01:36:37.279Z,99.90
2024-02-24T01:39:04.055Z,99.90
2024-02-24T01:41:30.929Z,99.90
2024-02-24T01:43:57.739Z,99.90
2024-02-24T01:46:24.579Z,99.90
2024-02-24T01:48:51.544Z,99.90
2024-02-24T01:51:19.691Z,99.90
2024-02-24T01:53:46.687Z,99.90
2024-02-24T01:56:14.173Z,99.90
2024-02-24T01:58:41.138Z,99.90
2024-02-24T02:01:08.614Z,99.90
2024-02-24T02:03:36.669Z,99.90
2024-02-24T02:06:04.604Z,99.90
2024-02-24T02:08:31.687Z,99.90
2024-02-24T02:10:58.706Z,99.90
2024-02-24T02:13:25.697Z,99.90
2024-02-24T02:15:55.082Z,99.90
2024-02-24T02:18:22.747Z,99.90
2024-02-24T02:20:51.919Z,99.90
2024-02-24T02:23:19.317Z,99.90
2024-02-24T02:25:46.320Z,99.90
2024-02-24T02:28:13.595Z,99.90
2024-02-24T02:30:40.459Z,99.90
2024-02-24T02:33:09.874Z,99.90
2024-02-24T02:35:37.482Z,99.90
2024-02-24T02:38:09.323Z,99.90
2024-02-24T02:40:36.807Z,99.90
2024-02-24T02:43:03.954Z,99.90
2024-02-24T02:45:30.891Z,99.90
2024-02-24T02:47:57.798Z,99.90
2024-02-24T02:50:24.771Z,99.90
2024-02-24T02:52:51.905Z,99.90
2024-02-24T02:55:19.504Z,99.90
2024-02-24T02:57:46.487Z,99.90
2024-02-24T03:00:13.931Z,99.90
2024-02-24T03:02:40.802Z,99.90
2024-02-24T03:05:09.040Z,99.90
2024-02-24T03:07:35.940Z,99.90
2024-02-24T03:10:04.195Z,99.90
2024-02-24T03:12:31.485Z,99.90
2024-02-24T03:14:59.104Z,99.90
2024-02-24T03:17:25.996Z,99.90
2024-02-24T03:19:52.843Z,99.90
2024-02-24T03:22:19.757Z,99.90
2024-02-24T03:24:46.603Z,99.90
2024-02-24T03:27:13.459Z,99.90
2024-02-24T03:29:40.493Z,99.90
2024-02-24T03:32:08.043Z,99.90
2024-02-24T03:34:34.965Z,99.90
2024-02-24T03:37:01.854Z,99.90
2024-02-24T03:39:28.785Z,99.90
2024-02-24T03:41:55.672Z,99.90
2024-02-24T03:44:22.646Z,99.90
2024-02-24T03:46:49.648Z,99.90
2024-02-24T03:49:16.598Z,99.90
2024-02-24T03:51:43.537Z,99.90
2024-02-24T03:54:12.085Z,99.90
2024-02-24T03:56:38.965Z,99.90
2024-02-24T03:59:05.995Z,99.90
2024-02-24T04:01:32.933Z,99.90
2024-02-24T04:03:59.895Z,99.90
2024-02-24T04:06:26.835Z,99.90
2024-02-24T04:08:53.926Z,99.90
2024-02-24T04:11:21.228Z,99.90
2024-02-24T04:13:48.234Z,99.90
2024-02-24T04:16:15.070Z,99.90
2024-02-24T04:18:41.989Z,99.90
2024-02-24T04:21:08.942Z,99.90
2024-02-24T04:23:35.819Z,99.90
2024-02-24T04:26:02.652Z,99.90
2024-02-24T04:28:29.526Z,99.90
2024-02-24T04:30:56.353Z,99.90
2024-02-24T04:33:23.334Z,99.90
2024-02-24T04:35:50.444Z,99.90
2024-02-24T04:38:17.323Z,99.90
2024-02-24T04:40:44.267Z,99.90
2024-02-24T04:43:11.155Z,99.90
2024-02-24T04:45:38.116Z,99.90
2024-02-24T04:48:05.405Z,99.90
2024-02-24T04:50:32.648Z,99.90
2024-02-24T04:52:59.492Z,99.90
2024-02-24T04:55:26.379Z,99.90
2024-02-24T04:57:53.242Z,99.90
2024-02-24T05:00:20.213Z,99.90
2024-02-24T05:02:47.244Z,99.90
2024-02-24T05:05:14.353Z,99.90
2024-02-24T05:07:41.876Z,99.90
2024-02-24T05:10:09.704Z,99.90
2024-02-24T05:12:37.157Z,99.90
2024-02-24T05:15:04.463Z,99.90
2024-02-24T05:17:31.370Z,99.90
2024-02-24T05:19:58.283Z,99.90
2024-02-24T05:22:25.110Z,99.90
2024-02-24T05:24:54.984Z,99.90
2024-02-24T05:27:21.956Z,99.90
2024-02-24T05:29:49.077Z,99.90
2024-02-24T05:32:18.109Z,99.90
2024-02-24T05:34:45.402Z,99.90
2024-02-24T05:37:12.654Z,99.90
2024-02-24T05:39:39.730Z,99.90
2024-02-24T05:42:09.624Z,99.90
2024-02-24T05:44:36.466Z,99.90
2024-02-24T05:47:03.461Z,99.90
2024-02-24T05:49:30.495Z,99.90
2024-02-24T05:51:57.544Z,99.90
2024-02-24T05:54:24.448Z,99.90
2024-02-24T05:56:51.881Z,99.90
2024-02-24T05:59:19.819Z,99.90
2024-02-24T06:01:47.266Z,99.90
2024-02-24T06:04:15.022Z,99.90
2024-02-24T06:06:41.898Z,99.90
2024-02-24T06:09:08.724Z,99.90
2024-02-24T06:11:35.645Z,99.90
2024-02-24T06:14:02.490Z,99.90
2024-02-24T06:16:29.346Z,99.90
2024-02-24T06:18:56.279Z,99.90
2024-02-24T06:21:23.404Z,99.90
2024-02-24T06:23:50.290Z,99.90
2024-02-24T06:26:17.202Z,99.90
2024-02-24T06:28:44.500Z,99.90
2024-02-24T06:31:12.376Z,99.90
2024-02-24T06:33:39.318Z,99.90
2024-02-24T06:36:06.758Z,99.90
2024-02-24T06:38:33.598Z,99.90
2024-02-24T06:41:00.534Z,99.90
2024-02-24T06:43:27.409Z,99.90
2024-02-24T06:45:54.306Z,99.90
2024-02-24T06:48:21.260Z,99.90
2024-02-24T06:50:48.201Z,99.90
2024-02-24T06:53:15.131Z,99.90
2024-02-24T06:55:42.243Z,99.90
2024-02-24T06:58:09.158Z,99.90
2024-02-24T07:00:36.940Z,99.90
2024-02-24T07:03:04.391Z,99.90
2024-02-24T07:05:33.064Z,99.90
2024-02-24T07:08:00.202Z,99.90
2024-02-24T07:10:27.925Z,99.90
2024-02-24T07:12:54.726Z,99.90
2024-02-24T07:15:21.554Z,99.90
2024-02-24T07:17:48.504Z,99.90
2024-02-24T07:20:15.640Z,99.90
2024-02-24T07:22:43.199Z,99.90
2024-02-24T07:25:10.068Z,99.90
2024-02-24T07:27:36.884Z,99.90
2024-02-24T07:30:06.189Z,99.90
2024-02-24T07:32:35.015Z,99.90
2024-02-24T07:35:02.663Z,99.90
2024-02-24T07:37:29.442Z,99.90
2024-02-24T07:39:56.352Z,99.90
2024-02-24T07:42:23.280Z,99.90
2024-02-24T07:44:50.247Z,99.90
2024-02-24T07:47:18.732Z,99.90
2024-02-24T07:49:46.755Z,99.90
2024-02-24T07:52:13.722Z,99.90
2024-02-24T07:54:40.562Z,99.90
2024-02-24T07:57:07.424Z,99.90
2024-02-24T07:59:34.369Z,99.90
2024-02-24T08:02:01.221Z,99.90
2024-02-24T08:04:28.081Z,99.90
2024-02-24T08:06:54.971Z,99.90
2024-02-24T08:09:21.848Z,99.90
2024-02-24T08:11:48.725Z,99.90
2024-02-24T08:14:15.675Z,99.90
2024-02-24T08:16:42.534Z,99.90
2024-02-24T08:19:10.374Z,99.90
2024-02-24T08:21:39.187Z,99.90
2024-02-24T08:24:09.193Z,99.90
2024-02-24T08:26:43.522Z,99.90
2024-02-24T08:29:11.394Z,99.90
2024-02-24T08:31:39.889Z,99.90
2024-02-24T08:34:07.447Z,99.90
2024-02-24T08:36:34.748Z,99.90
2024-02-24T08:39:02.083Z,99.90
2024-02-24T08:41:33.401Z,99.90
2024-02-24T08:44:02.718Z,99.90
2024-02-24T08:46:30.541Z,99.90
2024-02-24T08:49:00.660Z,99.90
2024-02-24T08:51:28.473Z,99.90
2024-02-24T08:53:56.113Z,99.90
2024-02-24T08:56:23.963Z,99.90
2024-02-24T08:58:51.028Z,99.90
2024-02-24T09:01:19.564Z,99.90
2024-02-24T09:03:46.951Z,99.90
2024-02-24T09:06:14.172Z,99.90
2024-02-24T09:08:41.262Z,99.90
2024-02-24T09:11:08.246Z,99.90
2024-02-24T09:13:35.243Z,99.90
2024-02-24T09:16:02.159Z,99.90
2024-02-24T09:18:29.520Z,99.90
2024-02-24T09:20:56.599Z,99.90
2024-02-24T09:23:23.567Z,99.90
2024-02-24T09:25:50.434Z,99.90
2024-02-24T09:28:17.332Z,99.90
2024-02-24T09:30:44.284Z,99.90
2024-02-24T09:33:11.427Z,99.90
2024-02-24T09:35:38.696Z,99.90
2024-02-24T09:38:05.575Z,99.90
2024-02-24T09:40:32.484Z,99.90
2024-02-24T09:43:06.731Z,99.90
2024-02-24T09:45:35.935Z,99.90
2024-02-24T09:48:04.162Z,99.90
2024-02-24T09:50:31.336Z,99.90
2024-02-24T09:52:58.404Z,99.90
2024-02-24T09:55:25.838Z,99.90
2024-02-24T09:57:56.358Z,99.90
2024-02-24T10:00:23.868Z,99.90
2024-02-24T10:02:51.088Z,99.90
2024-02-24T10:05:18.181Z,99.90
2024-02-24T10:07:46.800Z,99.90
2024-02-24T10:10:18.177Z,99.90
2024-02-24T10:13:04.907Z,99.90
2024-02-24T10:15:33.457Z,99.90
2024-02-24T10:18:00.923Z,99.90
2024-02-24T10:20:29.074Z,99.90
2024-02-24T10:22:57.168Z,99.90
2024-02-24T10:25:24.470Z,99.90
2024-02-24T10:27:52.824Z,99.90
2024-02-24T10:30:22.978Z,99.90
2024-02-24T10:32:54.794Z,99.90
2024-02-24T10:35:22.530Z,99.90
2024-02-24T10:38:10.417Z,99.90
2024-02-24T10:40:43.273Z,99.90
2024-02-24T10:43:10.449Z,99.90
2024-02-24T10:45:37.703Z,99.90
2024-02-24T10:48:05.351Z,99.90
2024-02-24T10:50:32.371Z,99.90
2024-02-24T10:53:01.821Z,99.90
2024-02-24T10:55:30.610Z,99.90
2024-02-24T10:57:58.005Z,99.90
2024-02-24T11:00:37.073Z,99.90
2024-02-24T11:03:10.646Z,99.90
2024-02-24T11:05:37.699Z,99.90
2024-02-24T11:08:05.107Z,99.90
2024-02-24T11:10:34.371Z,99.90
2024-02-24T11:13:02.949Z,99.90
2024-02-24T11:15:29.842Z,99.90
2024-02-24T11:17:59.088Z,99.90
2024-02-24T11:20:43.612Z,99.90
2024-02-24T11:23:30.564Z,99.90
2024-02-24T11:26:13.732Z,99.90
2024-02-24T11:28:43.255Z,99.90
2024-02-24T11:31:16.471Z,99.90
2024-02-24T11:33:44.066Z,99.90
2024-02-24T11:36:11.884Z,99.90
2024-02-24T11:38:38.719Z,99.90
2024-02-24T11:41:06.482Z,99.90
2024-02-24T11:43:34.490Z,99.90
2024-02-24T11:46:02.424Z,99.90
2024-02-24T11:48:29.494Z,99.90
2024-02-24T11:50:56.790Z,99.90
2024-02-24T11:53:24.886Z,99.90
2024-02-24T11:55:51.893Z,95.80
2024-02-24T11:58:19.161Z,94.20
2024-02-24T12:00:46.277Z,95.40
2024-02-24T12:03:14.911Z,92.40
2024-02-24T12:05:42.415Z,90.40
2024-02-24T12:08:19.246Z,95.60
2024-02-24T12:10:46.275Z,99.10
2024-02-24T12:13:14.630Z,99.20
2024-02-24T12:15:44.951Z,98.60
2024-02-24T12:18:12.547Z,97.90
2024-02-24T12:20:49.778Z,98.60
2024-02-24T12:23:20.386Z,96.70
2024-02-24T12:25:47.499Z,98.20
2024-02-24T12:28:14.540Z,93.20
2024-02-24T12:30:43.077Z,91.60
2024-02-24T12:33:18.721Z,90.90
2024-02-24T12:35:48.996Z,94.10
2024-02-24T12:38:19.846Z,91.80
2024-02-24T12:40:47.216Z,91.00
2024-02-24T12:43:14.294Z,85.20
2024-02-24T12:45:41.259Z,84.10
2024-02-24T12:48:09.932Z,77.40
2024-02-24T12:50:37.220Z,76.30
2024-02-24T12:53:10.227Z,78.80
2024-02-24T12:55:37.700Z,85.50
2024-02-24T12:58:07.673Z,90.00
2024-02-24T13:00:34.682Z,93.30
2024-02-24T13:03:02.493Z,96.90
2024-02-24T13:05:29.572Z,98.30
2024-02-24T13:07:56.664Z,99.90
2024-02-24T13:10:26.800Z,99.90
2024-02-24T13:12:53.888Z,97.00
2024-02-24T13:15:20.813Z,93.70
2024-02-24T13:17:47.980Z,95.60
2024-02-24T13:20:19.174Z,92.70
2024-02-24T13:22:46.125Z,93.70
2024-02-24T13:25:12.948Z,95.10
2024-02-24T13:27:39.823Z,96.80
2024-02-24T13:30:07.542Z,95.40
2024-02-24T13:32:34.544Z,96.40
2024-02-24T13:35:01.609Z,99.30
2024-02-24T13:37:29.017Z,99.90
2024-02-24T13:39:56.216Z,99.90
2024-02-24T13:42:23.291Z,99.90
2024-02-24T13:44:50.208Z,99.00
2024-02-24T13:47:17.621Z,99.50
2024-02-24T13:49:44.677Z,99.70
2024-02-24T13:52:11.575Z,99.90
2024-02-24T13:54:38.452Z,99.90
2024-02-24T13:57:05.859Z,99.90
2024-02-24T13:59:32.831Z,99.90
2024-02-24T14:01:59.693Z,99.90
2024-02-24T14:04:27.249Z,99.90
2024-02-24T14:06:54.641Z,99.90
2024-02-24T14:09:21.912Z,99.90
2024-02-24T14:11:48.981Z,99.90
2024-02-24T14:14:16.009Z,99.90
2024-02-24T14:16:46.258Z,99.90
2024-02-24T14:19:13.787Z,99.90
2024-02-24T14:21:40.625Z,99.90
2024-02-24T14:24:07.895Z,99.90
2024-02-24T14:26:34.796Z,99.90
2024-02-24T14:29:02.897Z,99.90
2024-02-24T14:31:31.955Z,99.90
2024-02-24T14:33:59.906Z,99.90
2024-02-24T14:36:27.037Z,99.90
2024-02-24T14:38:53.991Z,99.90
2024-02-24T14:41:21.936Z,99.90
2024-02-24T14:43:49.028Z,99.90
2024-02-24T14:46:15.862Z,99.90
2024-02-24T14:48:43.781Z,99.90
2024-02-24T14:51:10.873Z,99.90
2024-02-24T14:53:37.811Z,99.90
2024-02-24T14:56:04.922Z,99.90
2024-02-24T14:58:31.816Z,99.90
2024-02-24T15:00:58.643Z,99.90
2024-02-24T15:03:25.575Z,99.90
2024-02-24T15:05:52.639Z,99.90
2024-02-24T15:08:19.517Z,99.90
2024-02-24T15:10:46.483Z,99.90
2024-02-24T15:13:20.176Z,99.90
2024-02-24T15:15:51.238Z,99.90
2024-02-24T15:18:18.223Z,99.90
2024-02-24T15:20:45.278Z,99.90
2024-02-24T15:23:14.326Z,99.90
2024-02-24T15:25:42.640Z,99.90
2024-02-24T15:28:10.533Z,99.90
2024-02-24T15:30:38.550Z,99.90
2024-02-24T15:33:06.534Z,99.90
2024-02-24T15:35:33.390Z,99.90
2024-02-24T15:38:00.373Z,99.90
2024-02-24T15:40:28.417Z,99.90
2024-02-24T15:42:56.900Z,99.90
2024-02-24T15:45:24.327Z,99.90
2024-02-24T15:47:51.836Z,99.90
2024-02-24T15:50:19.328Z,99.90
2024-02-24T15:52:46.318Z,99.90
2024-02-24T15:55:13.886Z,99.90
2024-02-24T15:57:45.042Z,99.90
2024-02-24T16:00:12.093Z,99.90
2024-02-24T16:02:39.886Z,99.90
2024-02-24T16:05:06.981Z,99.90
2024-02-24T16:07:33.931Z,99.90
2024-02-24T16:10:00.734Z,99.90
2024-02-24T16:12:34.224Z,99.90
2024-02-24T16:15:02.511Z,99.90
2024-02-24T16:17:29.845Z,99.90
2024-02-24T16:19:57.067Z,99.90
2024-02-24T16:22:24.820Z,99.90
2024-02-24T16:24:51.711Z,99.90
2024-02-24T16:27:18.741Z,99.90
2024-02-24T16:29:45.698Z,99.90
2024-02-24T16:32:12.583Z,99.90
2024-02-24T16:34:39.583Z,99.90
2024-02-24T16:37:07.964Z,99.90
2024-02-24T16:39:35.077Z,99.90
2024-02-24T16:42:02.352Z,99.90
2024-02-24T16:44:29.404Z,99.90
2024-02-24T16:46:56.588Z,99.90
2024-02-24T16:49:24.248Z,99.90
2024-02-24T16:51:53.929Z,99.90
2024-02-24T16:54:21.174Z,99.90
2024-02-24T16:56:48.139Z,99.90
2024-02-24T16:59:15.387Z,99.90
2024-02-24T17:01:42.304Z,99.90
2024-02-24T17:04:09.949Z,99.90
2024-02-24T17:06:37.063Z,99.90
2024-02-24T17:09:05.040Z,99.90
2024-02-24T17:11:32.364Z,99.90
2024-02-24T17:13:59.481Z,99.90
2024-02-24T17:16:26.444Z,99.90
2024-02-24T17:18:53.532Z,99.90
2024-02-24T17:21:20.644Z,99.90
2024-02-24T17:23:48.727Z,99.90
2024-02-24T17:26:19.420Z,99.90
2024-02-24T17:28:49.068Z,99.90
2024-02-24T17:31:16.917Z,99.90
2024-02-24T17:33:44.279Z,99.90
2024-02-24T17:36:11.726Z,99.90
2024-02-24T17:38:39.256Z,99.90
2024-02-24T17:41:06.540Z,99.90
2024-02-24T17:43:33.610Z,99.90
2024-02-24T17:46:00.606Z,99.90
2024-02-24T17:48:28.308Z,99.90
2024-02-24T17:50:55.402Z,99.90
2024-02-24T17:53:23.407Z,99.90
2024-02-24T17:55:51.539Z,99.90
2024-02-24T17:58:26.441Z,99.90
2024-02-24T18:00:59.367Z,99.90
2024-02-24T18:03:26.354Z,99.90
2024-02-24T18:05:53.337Z,99.90
2024-02-24T18:08:20.251Z,99.90
2024-02-24T18:10:47.260Z,99.90
2024-02-24T18:13:14.104Z,99.90
2024-02-24T18:15:42.750Z,99.90
2024-02-24T18:18:10.512Z,99.90
2024-02-24T18:20:37.505Z,99.90
2024-02-24T18:23:04.561Z,99.90
2024-02-24T18:25:31.628Z,99.90
2024-02-24T18:27:58.499Z,99.90
2024-02-24T18:30:25.335Z,99.90
2024-02-24T18:32:52.299Z,99.90
2024-02-24T18:35:19.260Z,99.90
2024-02-24T18:37:46.180Z,99.90
2024-02-24T18:40:13.140Z,99.90
2024-02-24T18:42:42.535Z,99.90
2024-02-24T18:45:10.033Z,99.90
2024-02-24T18:47:37.145Z,99.90
2024-02-24T18:50:04.688Z,99.90
2024-02-24T18:52:31.472Z,99.90
2024-02-24T18:54:58.343Z,99.90
2024-02-24T18:57:25.321Z,99.90
2024-02-24T18:59:53.979Z,99.90
2024-02-24T19:02:20.985Z,99.90
2024-02-24T19:04:48.048Z,99.90
2024-02-24T19:07:16.561Z,99.90
2024-02-24T19:09:45.376Z,99.90
2024-02-24T19:12:15.657Z,99.90
2024-02-24T19:14:49.031Z,99.90
2024-02-24T19:17:21.814Z,99.90
2024-02-24T19:19:50.082Z,99.90
2024-02-24T19:22:17.332Z,99.90
2024-02-24T19:24:44.418Z,99.90
2024-02-24T19:27:11.441Z,99.90
2024-02-24T19:29:41.639Z,99.90
2024-02-24T19:32:08.537Z,99.90
2024-02-24T19:34:35.485Z,99.90
2024-02-24T19:37:04.555Z,99.90
2024-02-24T19:39:31.915Z,99.90
2024-02-24T19:42:00.047Z,99.90
2024-02-24T19:44:27.287Z,99.90
2024-02-24T19:46:54.214Z,99.90
2024-02-24T19:49:21.590Z,99.90
2024-02-24T19:51:48.494Z,99.90
2024-02-24T19:54:15.320Z,99.90
2024-02-24T19:56:42.273Z,99.90
2024-02-24T19:59:09.232Z,99.90
2024-02-24T20:01:40.318Z,99.90
2024-02-24T20:04:08.012Z,99.90
2024-02-24T20:06:35.185Z,99.90
2024-02-24T20:09:03.080Z,99.90
2024-02-24T20:11:30.643Z,99.90
2024-02-24T20:13:57.553Z,99.90
2024-02-24T20:16:24.500Z,99.90
2024-02-24T20:18:51.528Z,99.90
2024-02-24T20:21:18.648Z,99.90
2024-02-24T20:23:47.482Z,99.90
2024-02-24T20:26:14.460Z,99.90
2024-02-24T20:28:44.970Z,99.90
2024-02-24T20:31:13.818Z,99.90
2024-02-24T20:33:47.271Z,99.90
2024-02-24T20:36:18.126Z,99.90
2024-02-24T20:38:48.807Z,99.90
2024-02-24T20:41:17.892Z,99.90
2024-02-24T20:43:45.528Z,99.90
2024-02-24T20:46:12.589Z,99.90
2024-02-24T20:48:39.666Z,99.90
2024-02-24T20:51:06.826Z,99.90
2024-02-24T20:53:33.679Z,99.90
2024-02-24T20:56:02.175Z,99.90
2024-02-24T20:58:29.044Z,99.90
2024-02-24T21:00:55.954Z,99.90
2024-02-24T21:03:22.969Z,99.90
2024-02-24T21:05:49.965Z,99.90
2024-02-24T21:08:16.941Z,99.90
2024-02-24T21:10:43.924Z,99.90
2024-02-24T21:13:10.962Z,99.90
2024-02-24T21:15:37.970Z,99.90
2024-02-24T21:18:05.055Z,99.90
2024-02-24T21:20:31.989Z,99.90
2024-02-24T21:22:58.948Z,99.90
2024-02-24T21:25:28.999Z,99.90
2024-02-24T21:27:58.237Z,99.90
2024-02-24T21:30:26.157Z,99.90
2024-02-24T21:32:53.988Z,99.90
2024-02-24T21:35:21.267Z,99.90
2024-02-24T21:37:48.245Z,99.90
2024-02-24T21:40:15.711Z,99.90
2024-02-24T21:42:43.168Z,99.90
2024-02-24T21:45:10.254Z,99.90
2024-02-24T21:47:37.283Z,99.90
2024-02-24T21:50:07.593Z,99.90
2024-02-24T21:52:36.070Z,99.90
2024-02-24T21:55:03.439Z,99.90
2024-02-24T21:57:30.646Z,99.90
2024-02-24T21:59:57.611Z,99.90
2024-02-24T22:02:24.609Z,99.90
2024-02-24T22:04:51.461Z,99.90
2024-02-24T22:07:19.600Z,99.90
2024-02-24T22:09:46.423Z,99.90
2024-02-24T22:12:13.433Z,99.90
2024-02-24T22:14:40.305Z,99.90
2024-02-24T22:17:07.147Z,99.90
2024-02-24T22:19:35.465Z,99.90
2024-02-24T22:22:03.082Z,99.90
2024-02-24T22:24:29.909Z,99.90
2024-02-24T22:26:56.876Z,99.90
2024-02-24T22:29:23.808Z,99.90
2024-02-24T22:31:50.706Z,99.90
2024-02-24T22:34:17.804Z,99.90
2024-02-24T22:36:44.772Z,99.90
2024-02-24T22:39:11.757Z,99.90
2024-02-24T22:41:38.659Z,99.90
2024-02-24T22:44:05.768Z,99.90
2024-02-24T22:46:32.912Z,99.90
2024-02-24T22:48:59.909Z,99.90
2024-02-24T22:51:26.882Z,99.90
2024-02-24T22:53:53.919Z,99.90
2024-02-24T22:56:21.133Z,99.90
2024-02-24T22:58:48.015Z,99.90
2024-02-24T23:01:17.801Z,99.90
2024-02-24T23:03:44.652Z,99.90
2024-02-24T23:06:12.116Z,99.90
2024-02-24T23:08:40.080Z,99.90
2024-02-24T23:11:07.248Z,99.90
2024-02-24T23:13:34.272Z,99.90
2024-02-24T23:16:01.169Z,99.90
2024-02-24T23:18:28.258Z,99.90
2024-02-24T23:20:55.582Z,99.90
2024-02-24T23:23:22.471Z,99.90
2024-02-24T23:25:49.325Z,99.90
2024-02-24T23:28:16.179Z,99.90
2024-02-24T23:30:43.144Z,99.90
2024-02-24T23:33:10.133Z,99.90
2024-02-24T23:35:37.673Z,99.90
2024-02-24T23:38:12.976Z,99.90
2024-02-24T23:40:40.362Z,99.90
2024-02-24T23:43:07.260Z,99.90
2024-02-24T23:45:35.022Z,99.90
2024-02-24T23:48:02.265Z,99.90
2024-02-24T23:50:29.539Z,99.90
2024-02-24T23:52:56.451Z,99.90
2024-02-24T23:55:23.262Z,99.90
2024-02-24T23:57:50.041Z,99.90
